메인 페이지
METAR-TAF:

METAR-TAF

공항 :

아바나, 쿠바

호세 마르티 국제공항

위도: 22-59N, 경도: 082-24W, 고도: 59m

현재 날씨관측

예보는 51분 전, 09:55시(UTC)에 발표되었습니다.
남동1kt
온도 21°C
습도 94%
기압 1015 hPa
시정: 8000m
고도 3000ft 상공 구름 보통

METAR: MUHA 250955Z 13001KT 8000 SCT030 21/20 Q1015

시각: 06:46 (10:46 UTC)

예보

예보는 5 시간 46분 전, 05:00시(UTC)에 발표되었습니다.
예보 대상 시간: 25일 06시부터 26일 06시까지 (UTC)
남동5kt
시정: 9000m
고도 3000ft 상공 구름 조금
전환 중
25일 17시부터 25일 18시까지 (UTC)
10kt
고도 3000ft 상공 구름 많음
일시적
25일 19시부터 25일 23시까지 (UTC)
여러 방향의 바람 10kt
시정: 3000m
고도 1800ft 상공 구름 조금, 적란운.
고도 2000ft 상공 구름 많음
뇌우, 비
전환 중
26일 02시부터 26일 03시까지 (UTC)
여러 방향의 바람 3kt
고도 3000ft 상공 구름 조금

TAF: MUHA 250500Z 2506/2606 14005KT 9000 FEW030 BECMG 2517/2518 36010KT BKN030 TEMPO 2519/2523 VRB10KT 3000 TSRA FEW018CB BKN020 BECMG 2602/2603 VRB03KT FEW030

4,000개 이상의 공항 관측 자료 및 예보 (METAR 및 TAF 보고).

지도상에서 검색 가능한 기상관측소가 노란 점과 빨간 점으로 표시되어 있습니다.

기상관측소 명을 보려면 표시 위로 마우스를 이동하세요.

날씨 관측과 예보를 보려면 클릭하세요.

지도 변경 : 확대하려면 엑스 표시가 있는 녹색 버튼, 축소하려면 빼기 표시가 있는 녹색 버튼, 다음 페이지의 지도를 보려면 녹색 화살표를 클릭하세요.


METAR-TAF: